Time;durP1;ratioP1;P1;durP2;ratioP2;P2;SDS_P1;SDS_P2;PMS_P1;PMS_P2;Temp;Humidity;BMP_temperature;BMP_pressure;BME280_temperature;BME280_humidity;BME280_pressure;Samples;Min_cycle;Max_cycle;Signal;HPM_P1;HPM_P2
2021/12/11 00:01:40;;;;;;;0.80;0.80;;;;;;;;;;1870024;75;26276;-34
2021/12/11 00:04:08;;;;;;;0.90;0.90;;;;;;;;;;1860422;76;26316;-30
2021/12/11 00:06:39;;;;;;;0.85;0.80;;;;;;;;;;1881848;76;26342;-33
2021/12/11 00:09:11;;;;;;;1.00;1.00;;;;;;;;;;1874067;76;26314;-30
2021/12/11 00:11:40;;;;;;;0.90;0.90;;;;;;;;;;1863761;76;26321;-29
2021/12/11 00:14:08;;;;;;;0.90;0.90;;;;;;;;;;1873031;76;26392;-33
2021/12/11 00:16:36;;;;;;;0.90;0.90;;;;;;;;;;1889186;76;26365;-34
2021/12/11 00:19:05;;;;;;;0.80;0.80;;;;;;;;;;1889793;75;26339;-31
2021/12/11 00:21:33;;;;;;;0.85;0.85;;;;;;;;;;1880215;76;26281;-29
2021/12/11 00:24:04;;;;;;;0.80;0.80;;;;;;;;;;1879352;76;26358;-34
2021/12/11 00:26:33;;;;;;;0.90;0.90;;;;;;;;;;1866257;76;26275;-29
2021/12/11 00:29:01;;;;;;;0.90;0.90;;;;;;;;;;1877390;76;26327;-31
2021/12/11 00:31:29;;;;;;;1.65;0.90;;;;;;;;;;1883939;76;26281;-35
2021/12/11 00:33:57;;;;;;;0.90;0.90;;;;;;;;;;1876667;76;26283;-32
2021/12/11 00:36:31;;;;;;;0.80;0.80;;;;;;;;;;1863263;76;26357;-30
2021/12/11 00:38:56;;;;;;;0.88;0.88;;;;;;;;;;1862279;76;26825;-32
2021/12/11 00:41:25;;;;;;;0.75;0.75;;;;;;;;;;1839225;76;26763;-29
2021/12/11 00:43:52;;;;;;;1.40;0.72;;;;;;;;;;1843176;76;26795;-32
2021/12/11 00:46:24;;;;;;;0.78;0.78;;;;;;;;;;1848159;76;26278;-30
2021/12/11 00:48:51;;;;;;;0.80;0.80;;;;;;;;;;1842308;76;26320;-32
2021/12/11 00:51:20;;;;;;;0.60;0.60;;;;;;;;;;1858219;76;26717;-29
2021/12/11 00:53:55;;;;;;;0.78;0.78;;;;;;;;;;1852691;77;26344;-30
2021/12/11 00:56:26;;;;;;;0.90;0.90;;;;;;;;;;1864646;77;26371;-29
2021/12/11 00:58:55;;;;;;;1.50;0.85;;;;;;;;;;1846241;76;26321;-34
2021/12/11 01:01:30;;;;;;;0.70;0.70;;;;;;;;;;1847478;76;26307;-32
2021/12/11 01:04:07;;;;;;;0.70;0.70;;;;;;;;;;1811855;77;26377;-32
2021/12/11 01:06:39;;;;;;;0.72;0.72;;;;;;;;;;1838587;77;26275;-31
2021/12/11 01:09:07;;;;;;;0.93;0.85;;;;;;;;;;1851795;76;26352;-35
2021/12/11 01:11:42;;;;;;;0.90;0.90;;;;;;;;;;1850249;76;26807;-29
2021/12/11 01:14:21;;;;;;;0.72;0.72;;;;;;;;;;1847826;76;26779;-32
2021/12/11 01:16:41;;;;;;;0.53;0.53;;;;;;;;;;1859722;77;26258;-30
2021/12/11 01:19:16;;;;;;;0.70;0.70;;;;;;;;;;1858882;77;26309;-31
2021/12/11 01:24:15;;;;;;;0.70;0.70;;;;;;;;;;1856198;76;26850;-32
2021/12/11 01:26:42;;;;;;;0.80;0.80;;;;;;;;;;1858418;76;26324;-32
2021/12/11 01:29:10;;;;;;;0.90;0.90;;;;;;;;;;1843288;76;26770;-29
2021/12/11 01:31:38;;;;;;;0.68;0.68;;;;;;;;;;1863464;77;26286;-32
2021/12/11 01:34:06;;;;;;;0.80;0.80;;;;;;;;;;1859506;77;26231;-33
2021/12/11 01:36:34;;;;;;;0.68;0.68;;;;;;;;;;1859869;75;26362;-29
2021/12/11 01:39:03;;;;;;;0.80;0.80;;;;;;;;;;1889085;75;26237;-32
2021/12/11 01:41:30;;;;;;;0.60;0.60;;;;;;;;;;1880361;75;26757;-31
2021/12/11 01:43:59;;;;;;;0.70;0.70;;;;;;;;;;1877748;75;26487;-34
2021/12/11 01:46:27;;;;;;;0.60;0.60;;;;;;;;;;1869714;75;26804;-31
2021/12/11 01:48:58;;;;;;;0.62;0.62;;;;;;;;;;1892588;75;26261;-31
2021/12/11 01:51:26;;;;;;;1.27;0.80;;;;;;;;;;1882708;75;26322;-29
2021/12/11 01:53:56;;;;;;;0.70;0.70;;;;;;;;;;1893321;75;26328;-33
2021/12/11 01:56:25;;;;;;;0.70;0.70;;;;;;;;;;1895431;75;27159;-29
2021/12/11 01:59:00;;;;;;;0.62;0.62;;;;;;;;;;1889115;75;26816;-33
2021/12/11 02:01:35;;;;;;;0.60;0.60;;;;;;;;;;1895265;75;26261;-30
2021/12/11 02:04:03;;;;;;;0.68;0.68;;;;;;;;;;1880066;75;26249;-32
2021/12/11 02:06:32;;;;;;;0.60;0.60;;;;;;;;;;1875236;75;27489;-30
2021/12/11 02:09:01;;;;;;;0.70;0.70;;;;;;;;;;1877444;75;26205;-32
2021/12/11 02:11:30;;;;;;;0.60;0.60;;;;;;;;;;1879062;75;26288;-32
2021/12/11 02:13:58;;;;;;;0.70;0.70;;;;;;;;;;1878622;75;26308;-30
2021/12/11 02:16:27;;;;;;;0.57;0.57;;;;;;;;;;1891321;75;26277;-29
2021/12/11 02:18:57;;;;;;;0.50;0.50;;;;;;;;;;1872653;75;26721;-32
2021/12/11 02:21:32;;;;;;;0.60;0.60;;;;;;;;;;1891146;75;26315;-31
2021/12/11 02:24:06;;;;;;;0.60;0.60;;;;;;;;;;1876624;75;26324;-35
2021/12/11 02:26:36;;;;;;;0.60;0.60;;;;;;;;;;1885644;75;26765;-29
2021/12/11 02:29:07;;;;;;;0.60;0.60;;;;;;;;;;1874921;75;26313;-34
2021/12/11 02:31:36;;;;;;;0.70;0.70;;;;;;;;;;1879273;75;26317;-29
2021/12/11 02:34:08;;;;;;;0.57;0.57;;;;;;;;;;1875355;75;26389;-34
2021/12/11 02:36:36;;;;;;;0.68;0.60;;;;;;;;;;1865388;75;26328;-29
2021/12/11 02:39:11;;;;;;;0.60;0.60;;;;;;;;;;1854308;76;26790;-32
2021/12/11 02:41:39;;;;;;;0.60;0.60;;;;;;;;;;1851271;76;26332;-31
2021/12/11 02:44:11;;;;;;;0.60;0.60;;;;;;;;;;1858908;77;26372;-30
2021/12/11 02:46:43;;;;;;;0.60;0.60;;;;;;;;;;1848364;76;26225;-32
2021/12/11 02:49:12;;;;;;;0.50;0.50;;;;;;;;;;1852223;76;26362;-29
2021/12/11 02:51:41;;;;;;;0.50;0.50;;;;;;;;;;1834072;77;26290;-34
2021/12/11 02:54:15;;;;;;;0.60;0.60;;;;;;;;;;1864408;76;26355;-34
2021/12/11 02:56:44;;;;;;;0.30;0.30;;;;;;;;;;1862039;76;26269;-30
2021/12/11 02:59:15;;;;;;;0.60;0.60;;;;;;;;;;1840417;76;26308;-30
2021/12/11 03:01:49;;;;;;;0.40;0.40;;;;;;;;;;1844300;77;26298;-29
2021/12/11 03:04:26;;;;;;;0.50;0.50;;;;;;;;;;1853002;77;26314;-37
2021/12/11 03:06:52;;;;;;;0.50;0.50;;;;;;;;;;1844200;77;26314;-29
2021/12/11 03:09:21;;;;;;;0.50;0.50;;;;;;;;;;1853439;76;26750;-29
2021/12/11 03:11:49;;;;;;;0.65;0.60;;;;;;;;;;1839965;76;26879;-29
2021/12/11 03:14:18;;;;;;;0.50;0.50;;;;;;;;;;1853124;77;26919;-33
2021/12/11 03:16:48;;;;;;;0.42;0.42;;;;;;;;;;1856262;76;27387;-29
2021/12/11 03:19:17;;;;;;;0.90;0.50;;;;;;;;;;1859404;76;26282;-31
2021/12/11 03:21:45;;;;;;;0.62;0.45;;;;;;;;;;1850103;76;26258;-30
2021/12/11 03:24:13;;;;;;;0.78;0.60;;;;;;;;;;1862816;76;26952;-31
2021/12/11 03:26:41;;;;;;;0.42;0.40;;;;;;;;;;1842124;77;26268;-30
2021/12/11 03:29:09;;;;;;;0.47;0.47;;;;;;;;;;1854177;76;26300;-35
2021/12/11 03:31:37;;;;;;;0.40;0.40;;;;;;;;;;1843390;77;26219;-34
2021/12/11 03:34:06;;;;;;;0.40;0.40;;;;;;;;;;1798191;77;26326;-32
2021/12/11 03:36:34;;;;;;;0.40;0.40;;;;;;;;;;1842120;76;26283;-32
2021/12/11 03:39:03;;;;;;;0.47;0.47;;;;;;;;;;1839971;76;26313;-32
2021/12/11 03:41:31;;;;;;;0.40;0.40;;;;;;;;;;1855879;76;26542;-31
2021/12/11 03:43:59;;;;;;;0.33;0.33;;;;;;;;;;1856845;77;26661;-32
2021/12/11 03:46:26;;;;;;;3.30;0.30;;;;;;;;;;1837872;76;26271;-31
2021/12/11 03:48:55;;;;;;;0.40;0.40;;;;;;;;;;1856533;77;26258;-32
2021/12/11 03:51:24;;;;;;;0.40;0.40;;;;;;;;;;1861839;77;26851;-35
2021/12/11 03:53:52;;;;;;;1.07;0.40;;;;;;;;;;1862837;76;26313;-30
2021/12/11 03:56:20;;;;;;;0.40;0.40;;;;;;;;;;1862779;76;26262;-30
2021/12/11 03:58:52;;;;;;;0.30;0.30;;;;;;;;;;1860951;76;26253;-31
2021/12/11 04:01:19;;;;;;;0.50;0.50;;;;;;;;;;1859658;77;26286;-34
2021/12/11 04:03:48;;;;;;;0.30;0.30;;;;;;;;;;1859869;76;26696;-30
2021/12/11 04:06:16;;;;;;;0.30;0.30;;;;;;;;;;1864714;77;26676;-35
2021/12/11 04:08:45;;;;;;;0.40;0.40;;;;;;;;;;1864274;76;26256;-29
2021/12/11 04:11:14;;;;;;;0.70;0.33;;;;;;;;;;1860357;76;26804;-30
2021/12/11 04:13:42;;;;;;;0.40;0.40;;;;;;;;;;1863582;77;26740;-30
2021/12/11 04:16:09;;;;;;;3.50;0.30;;;;;;;;;;1861426;77;26316;-30
2021/12/11 04:18:37;;;;;;;0.45;0.40;;;;;;;;;;1865071;76;26721;-31
2021/12/11 04:21:05;;;;;;;0.30;0.30;;;;;;;;;;1863942;77;26406;-34
2021/12/11 04:23:33;;;;;;;1.10;0.30;;;;;;;;;;1858488;76;26014;-33
2021/12/11 04:26:00;;;;;;;0.30;0.30;;;;;;;;;;1858410;76;26260;-33
2021/12/11 04:28:30;;;;;;;0.30;0.30;;;;;;;;;;1861587;76;26327;-30
2021/12/11 04:31:05;;;;;;;0.30;0.30;;;;;;;;;;1862882;77;26311;-32
2021/12/11 04:33:32;;;;;;;0.30;0.30;;;;;;;;;;1860566;76;26326;-34
2021/12/11 04:36:00;;;;;;;0.20;0.20;;;;;;;;;;1846268;76;26806;-33
2021/12/11 04:38:28;;;;;;;0.30;0.30;;;;;;;;;;1863413;77;26304;-33
2021/12/11 04:40:57;;;;;;;0.45;0.30;;;;;;;;;;1853520;76;26264;-35
2021/12/11 04:43:26;;;;;;;0.47;0.30;;;;;;;;;;1853901;76;26270;-30
2021/12/11 04:45:55;;;;;;;0.30;0.30;;;;;;;;;;1847765;76;26234;-34
2021/12/11 04:48:33;;;;;;;0.28;0.25;;;;;;;;;;1862271;76;26762;-32
2021/12/11 04:51:15;;;;;;;0.30;0.30;;;;;;;;;;1852212;77;26384;-31
2021/12/11 04:56:45;;;;;;;0.20;0.20;;;;;;;;;;1840073;77;26272;-31
2021/12/11 04:59:12;;;;;;;0.80;0.37;;;;;;;;;;1841581;77;26628;-32
2021/12/11 05:09:31;;;;;;;0.20;0.20;;;;;;;;;;1848131;77;26363;-33
2021/12/11 05:12:09;;;;;;;0.25;0.25;;;;;;;;;;1845277;76;26427;-31
2021/12/11 05:14:26;;;;;;;0.25;0.25;;;;;;;;;;1848767;76;26782;-32
2021/12/11 05:16:53;;;;;;;0.20;0.20;;;;;;;;;;1858763;76;26401;-34
2021/12/11 05:19:21;;;;;;;0.30;0.30;;;;;;;;;;1865572;77;26266;-30
2021/12/11 05:21:48;;;;;;;0.17;0.17;;;;;;;;;;1851999;77;26291;-30
2021/12/11 05:24:17;;;;;;;0.33;0.23;;;;;;;;;;1841117;76;26323;-29
2021/12/11 05:26:45;;;;;;;0.15;0.15;;;;;;;;;;1850716;76;26272;-30
2021/12/11 05:29:12;;;;;;;0.10;0.10;;;;;;;;;;1860557;77;26317;-32
2021/12/11 05:31:40;;;;;;;0.47;0.20;;;;;;;;;;1847065;76;26348;-29
2021/12/11 05:34:07;;;;;;;0.30;0.30;;;;;;;;;;1858244;77;26288;-36
2021/12/11 05:36:35;;;;;;;0.20;0.20;;;;;;;;;;1856694;76;26979;-36
2021/12/11 05:39:04;;;;;;;0.08;0.08;;;;;;;;;;1868596;75;26358;-32
2021/12/11 05:41:32;;;;;;;0.30;0.30;;;;;;;;;;1865167;75;26256;-29
2021/12/11 05:43:59;;;;;;;0.30;0.30;;;;;;;;;;1872150;75;26256;-35
2021/12/11 05:46:26;;;;;;;0.30;0.30;;;;;;;;;;1885128;75;26337;-30
2021/12/11 05:48:54;;;;;;;0.10;0.10;;;;;;;;;;1873104;75;26824;-34
2021/12/11 05:51:23;;;;;;;0.23;0.23;;;;;;;;;;1888152;75;26339;-30
2021/12/11 05:53:53;;;;;;;0.10;0.10;;;;;;;;;;1883024;75;26245;-31
2021/12/11 05:56:21;;;;;;;0.23;0.23;;;;;;;;;;1876769;75;26347;-32
2021/12/11 05:58:57;;;;;;;0.23;0.20;;;;;;;;;;1875761;75;26430;-36
2021/12/11 06:01:21;;;;;;;0.30;0.30;;;;;;;;;;1883274;75;26303;-35
2021/12/11 06:03:49;;;;;;;1.85;0.23;;;;;;;;;;1885493;75;26775;-30
2021/12/11 06:06:17;;;;;;;0.33;0.10;;;;;;;;;;1866771;75;26283;-34
2021/12/11 06:08:45;;;;;;;0.10;0.10;;;;;;;;;;1891982;75;26297;-29
2021/12/11 06:11:14;;;;;;;0.30;0.30;;;;;;;;;;1874777;75;27374;-30
2021/12/11 06:13:41;;;;;;;0.20;0.20;;;;;;;;;;1869803;75;26757;-35
2021/12/11 06:16:10;;;;;;;0.13;0.13;;;;;;;;;;1879604;75;26280;-33
2021/12/11 06:18:38;;;;;;;1.30;0.10;;;;;;;;;;1879316;75;26296;-31
2021/12/11 06:21:05;;;;;;;0.13;0.13;;;;;;;;;;1885719;75;26781;-32
2021/12/11 06:23:33;;;;;;;0.10;0.10;;;;;;;;;;1891690;75;26268;-29
2021/12/11 06:26:00;;;;;;;0.10;0.10;;;;;;;;;;1875338;74;26771;-31
2021/12/11 06:28:28;;;;;;;0.17;0.17;;;;;;;;;;1892496;75;26273;-31
2021/12/11 06:30:58;;;;;;;0.13;0.13;;;;;;;;;;1880338;75;27296;-34
2021/12/11 06:33:25;;;;;;;0.10;0.10;;;;;;;;;;1886679;75;26325;-30
2021/12/11 06:35:54;;;;;;;0.20;0.20;;;;;;;;;;1888855;75;26738;-30
2021/12/11 06:38:23;;;;;;;0.17;0.17;;;;;;;;;;1883695;74;26855;-29
2021/12/11 06:40:51;;;;;;;0.20;0.20;;;;;;;;;;1887252;75;26370;-30
2021/12/11 06:43:18;;;;;;;0.10;0.10;;;;;;;;;;1886261;75;26269;-30
2021/12/11 06:45:46;;;;;;;0.23;0.20;;;;;;;;;;1890493;74;26252;-29
2021/12/11 06:48:15;;;;;;;0.10;0.10;;;;;;;;;;1890490;75;26323;-32
2021/12/11 06:50:43;;;;;;;0.20;0.10;;;;;;;;;;1889162;75;26433;-33
2021/12/11 06:53:12;;;;;;;1.32;0.30;;;;;;;;;;1875806;75;26210;-32
2021/12/11 06:55:40;;;;;;;0.10;0.10;;;;;;;;;;1871913;75;26231;-29
2021/12/11 06:58:07;;;;;;;0.93;0.40;;;;;;;;;;1838950;77;26332;-32
2021/12/11 07:00:34;;;;;;;1.02;0.30;;;;;;;;;;1851561;77;26826;-32
2021/12/11 07:03:02;;;;;;;1.47;0.20;;;;;;;;;;1838753;77;26310;-31
2021/12/11 07:05:29;;;;;;;0.20;0.20;;;;;;;;;;1829083;77;26770;-33
2021/12/11 07:07:58;;;;;;;0.65;0.35;;;;;;;;;;1855287;77;26691;-36
2021/12/11 07:10:26;;;;;;;2.77;0.40;;;;;;;;;;1854075;77;26272;-29
2021/12/11 07:12:53;;;;;;;3.60;0.30;;;;;;;;;;1830089;77;26301;-35
2021/12/11 07:15:20;;;;;;;1.65;0.35;;;;;;;;;;1820581;77;26807;-31
2021/12/11 07:17:48;;;;;;;1.70;0.47;;;;;;;;;;1829931;77;26350;-30
2021/12/11 07:20:16;;;;;;;1.25;0.40;;;;;;;;;;1824063;77;26300;-30
2021/12/11 07:22:43;;;;;;;2.20;0.40;;;;;;;;;;1838855;77;26313;-29
2021/12/11 07:25:17;;;;;;;1.47;0.40;;;;;;;;;;1832477;77;26350;-32
2021/12/11 07:27:46;;;;;;;4.40;0.37;;;;;;;;;;1822716;77;26299;-33
2021/12/11 07:30:13;;;;;;;0.75;0.40;;;;;;;;;;1818689;77;26301;-30
2021/12/11 07:32:41;;;;;;;2.67;0.60;;;;;;;;;;1855965;77;26276;-31
2021/12/11 07:35:09;;;;;;;3.10;0.40;;;;;;;;;;1833241;77;26280;-31
2021/12/11 07:37:36;;;;;;;0.30;0.30;;;;;;;;;;1822506;77;26366;-34
2021/12/11 07:40:05;;;;;;;1.90;0.33;;;;;;;;;;1794416;77;26712;-32
2021/12/11 07:42:33;;;;;;;1.42;0.40;;;;;;;;;;1845226;77;26261;-30
2021/12/11 07:45:01;;;;;;;1.25;0.50;;;;;;;;;;1846989;77;26709;-31
2021/12/11 07:47:28;;;;;;;2.00;0.30;;;;;;;;;;1849784;76;26250;-30
2021/12/11 07:49:56;;;;;;;0.20;0.20;;;;;;;;;;1861145;77;26277;-31
2021/12/11 07:52:23;;;;;;;1.25;0.23;;;;;;;;;;1862127;76;26665;-29
2021/12/11 07:54:51;;;;;;;0.35;0.30;;;;;;;;;;1854608;77;26295;-31
2021/12/11 07:57:18;;;;;;;0.45;0.35;;;;;;;;;;1855292;76;26300;-36
2021/12/11 07:59:46;;;;;;;2.05;0.30;;;;;;;;;;1856681;75;26729;-34
2021/12/11 08:02:13;;;;;;;2.05;0.35;;;;;;;;;;1863004;75;26300;-34
2021/12/11 08:04:40;;;;;;;1.40;0.30;;;;;;;;;;1850236;76;26302;-33
2021/12/11 08:07:08;;;;;;;0.30;0.30;;;;;;;;;;1850891;75;26272;-33
2021/12/11 08:09:37;;;;;;;1.50;0.30;;;;;;;;;;1860959;75;26809;-32
2021/12/11 08:12:05;;;;;;;2.65;0.40;;;;;;;;;;1855082;77;26274;-33
2021/12/11 08:14:32;;;;;;;0.70;0.28;;;;;;;;;;1856085;77;26258;-36
2021/12/11 08:17:04;;;;;;;0.17;0.17;;;;;;;;;;1850591;76;26387;-32
2021/12/11 08:19:29;;;;;;;1.60;0.30;;;;;;;;;;1862509;77;26266;-32
2021/12/11 08:21:58;;;;;;;1.95;0.72;;;;;;;;;;1862396;76;26378;-30
2021/12/11 08:24:28;;;;;;;2.20;0.20;;;;;;;;;;1863198;76;26339;-34
2021/12/11 08:26:57;;;;;;;0.28;0.28;;;;;;;;;;1863636;75;26283;-31
2021/12/11 08:29:24;;;;;;;0.17;0.17;;;;;;;;;;1858444;76;26269;-32
2021/12/11 08:31:53;;;;;;;3.40;0.25;;;;;;;;;;1862371;76;26717;-30
2021/12/11 08:34:21;;;;;;;1.30;0.20;;;;;;;;;;1861941;76;26258;-35
2021/12/11 08:36:49;;;;;;;0.78;0.35;;;;;;;;;;1861468;77;26684;-29
2021/12/11 08:39:17;;;;;;;1.95;0.40;;;;;;;;;;1855475;76;26370;-36
2021/12/11 08:41:45;;;;;;;1.40;0.25;;;;;;;;;;1860801;76;26842;-30
2021/12/11 08:44:14;;;;;;;2.45;0.47;;;;;;;;;;1861040;76;26929;-31
2021/12/11 08:46:43;;;;;;;2.20;0.40;;;;;;;;;;1861531;77;26760;-29
2021/12/11 08:49:12;;;;;;;0.72;0.30;;;;;;;;;;1857800;76;26298;-36
2021/12/11 08:51:41;;;;;;;0.37;0.30;;;;;;;;;;1858346;76;26732;-29
2021/12/11 08:54:09;;;;;;;0.25;0.20;;;;;;;;;;1860660;76;26911;-31
2021/12/11 08:56:38;;;;;;;0.45;0.40;;;;;;;;;;1865264;76;26316;-31
2021/12/11 08:59:07;;;;;;;0.62;0.40;;;;;;;;;;1858927;77;26282;-32
2021/12/11 09:01:48;;;;;;;1.45;0.40;;;;;;;;;;1864455;76;26270;-32
2021/12/11 09:04:19;;;;;;;1.25;0.40;;;;;;;;;;1845658;77;26312;-31
2021/12/11 09:06:48;;;;;;;0.50;0.50;;;;;;;;;;1846516;77;26276;-29
2021/12/11 09:09:19;;;;;;;1.75;0.82;;;;;;;;;;1811599;77;26327;-36
2021/12/11 09:11:48;;;;;;;0.85;0.70;;;;;;;;;;1863136;76;26258;-29
2021/12/11 09:14:17;;;;;;;1.72;1.20;;;;;;;;;;1837532;77;26284;-37
2021/12/11 09:16:46;;;;;;;1.32;1.20;;;;;;;;;;1845327;77;26294;-33
2021/12/11 09:19:17;;;;;;;2.22;1.60;;;;;;;;;;1848054;77;26280;-32
2021/12/11 09:21:49;;;;;;;4.90;1.90;;;;;;;;;;1846028;76;26876;-33
2021/12/11 09:24:22;;;;;;;3.65;2.35;;;;;;;;;;1838347;76;26294;-34
2021/12/11 09:26:57;;;;;;;3.92;2.20;;;;;;;;;;1858110;76;26307;-29
2021/12/11 09:29:29;;;;;;;4.95;2.30;;;;;;;;;;1848076;77;26311;-30
2021/12/11 09:31:58;;;;;;;4.53;2.30;;;;;;;;;;1848874;76;26284;-31
2021/12/11 09:34:27;;;;;;;6.12;2.33;;;;;;;;;;1851993;75;26282;-29
2021/12/11 09:36:57;;;;;;;5.00;2.50;;;;;;;;;;1862333;76;26352;-30
2021/12/11 09:39:26;;;;;;;4.17;2.33;;;;;;;;;;1864129;76;26270;-30
2021/12/11 09:41:53;;;;;;;4.90;2.45;;;;;;;;;;1880281;76;26285;-30
2021/12/11 09:44:21;;;;;;;3.77;2.45;;;;;;;;;;1888844;75;26257;-35
2021/12/11 09:46:50;;;;;;;6.47;2.60;;;;;;;;;;1879124;76;26293;-30
2021/12/11 09:49:19;;;;;;;6.45;2.72;;;;;;;;;;1866614;76;26273;-35
2021/12/11 09:51:49;;;;;;;6.28;2.58;;;;;;;;;;1858951;76;26826;-31
2021/12/11 09:54:18;;;;;;;17.80;2.72;;;;;;;;;;1860404;76;26335;-33
2021/12/11 09:56:49;;;;;;;7.95;2.20;;;;;;;;;;1878657;76;26279;-33
2021/12/11 09:59:18;;;;;;;6.05;2.72;;;;;;;;;;1866441;76;26308;-32
2021/12/11 10:01:47;;;;;;;6.55;2.52;;;;;;;;;;1877035;76;26221;-30
2021/12/11 10:04:17;;;;;;;6.33;2.08;;;;;;;;;;1882124;76;26378;-33
2021/12/11 10:07:13;;;;;;;6.67;1.92;;;;;;;;;;1886473;76;26732;-29
2021/12/11 10:09:22;;;;;;;5.80;1.85;;;;;;;;;;1857975;76;26234;-30
2021/12/11 10:11:51;;;;;;;3.00;1.72;;;;;;;;;;1886917;76;26319;-31
2021/12/11 10:14:20;;;;;;;2.17;1.62;;;;;;;;;;1879408;74;26747;-31
2021/12/11 10:16:48;;;;;;;4.30;1.80;;;;;;;;;;1876214;76;26324;-30
2021/12/11 10:19:17;;;;;;;5.47;1.80;;;;;;;;;;1872662;76;26285;-32
2021/12/11 10:21:46;;;;;;;2.70;1.57;;;;;;;;;;1875336;76;26285;-31
2021/12/11 10:24:15;;;;;;;3.70;1.57;;;;;;;;;;1880822;76;26720;-33
2021/12/11 10:26:44;;;;;;;4.12;1.50;;;;;;;;;;1880060;76;26900;-34
2021/12/11 10:29:13;;;;;;;5.37;1.50;;;;;;;;;;1864714;76;26814;-33
2021/12/11 10:31:41;;;;;;;3.50;1.50;;;;;;;;;;1870401;76;26323;-31
2021/12/11 10:34:10;;;;;;;3.65;1.30;;;;;;;;;;1867565;76;26823;-32
2021/12/11 10:36:39;;;;;;;2.02;1.35;;;;;;;;;;1878524;76;27495;-32
2021/12/11 10:39:08;;;;;;;1.32;1.22;;;;;;;;;;1857665;76;26254;-32
2021/12/11 10:41:36;;;;;;;2.45;1.35;;;;;;;;;;1858365;76;26375;-32
2021/12/11 10:44:08;;;;;;;1.65;1.10;;;;;;;;;;1879444;76;26732;-30
2021/12/11 10:46:37;;;;;;;5.12;1.40;;;;;;;;;;1878599;75;26751;-35
2021/12/11 10:49:06;;;;;;;1.10;1.00;;;;;;;;;;1880506;76;26744;-31
2021/12/11 10:51:36;;;;;;;2.10;1.10;;;;;;;;;;1879568;76;26348;-31
2021/12/11 10:54:04;;;;;;;1.10;1.00;;;;;;;;;;1860064;76;26319;-31
2021/12/11 10:56:31;;;;;;;2.05;0.98;;;;;;;;;;1871066;76;26649;-31
2021/12/11 10:59:00;;;;;;;2.87;1.10;;;;;;;;;;1866220;76;26380;-31
2021/12/11 11:01:32;;;;;;;1.10;1.00;;;;;;;;;;1858836;76;26379;-31
2021/12/11 11:04:01;;;;;;;4.00;0.90;;;;;;;;;;1862490;76;26317;-31
2021/12/11 11:06:28;;;;;;;0.90;0.88;;;;;;;;;;1873450;76;26347;-32
2021/12/11 11:08:56;;;;;;;0.80;0.80;;;;;;;;;;1879287;76;27024;-31
2021/12/11 11:11:25;;;;;;;0.80;0.80;;;;;;;;;;1883732;76;26194;-32
2021/12/11 11:13:53;;;;;;;0.80;0.80;;;;;;;;;;1883059;76;26312;-31
2021/12/11 11:16:21;;;;;;;1.42;0.90;;;;;;;;;;1890356;76;26277;-34
2021/12/11 11:18:49;;;;;;;1.27;0.90;;;;;;;;;;1887945;76;26245;-30
2021/12/11 11:21:24;;;;;;;0.70;0.70;;;;;;;;;;1884730;76;26367;-31
2021/12/11 11:23:52;;;;;;;1.25;0.82;;;;;;;;;;1884049;76;26880;-30
2021/12/11 11:26:20;;;;;;;1.40;0.78;;;;;;;;;;1882084;76;26264;-36
2021/12/11 11:28:48;;;;;;;0.68;0.68;;;;;;;;;;1884161;76;26265;-32
2021/12/11 11:31:17;;;;;;;0.72;0.72;;;;;;;;;;1887398;76;26655;-31
2021/12/11 11:33:45;;;;;;;0.70;0.70;;;;;;;;;;1865613;74;26213;-30
2021/12/11 11:36:14;;;;;;;1.60;0.72;;;;;;;;;;1883184;76;26249;-31
2021/12/11 11:38:43;;;;;;;0.70;0.70;;;;;;;;;;1887727;76;26206;-30
2021/12/11 11:41:13;;;;;;;2.05;0.70;;;;;;;;;;1884032;76;26765;-33
2021/12/11 11:43:40;;;;;;;1.85;0.70;;;;;;;;;;1862918;77;26258;-32
2021/12/11 11:46:08;;;;;;;0.70;0.70;;;;;;;;;;1860743;76;26291;-35
2021/12/11 11:48:37;;;;;;;1.55;0.65;;;;;;;;;;1864520;76;26246;-31
2021/12/11 11:51:06;;;;;;;0.60;0.60;;;;;;;;;;1861311;77;26304;-30
2021/12/11 11:53:34;;;;;;;0.50;0.50;;;;;;;;;;1837918;76;26702;-31
2021/12/11 11:56:03;;;;;;;0.50;0.50;;;;;;;;;;1843155;77;26702;-32
2021/12/11 11:58:31;;;;;;;0.42;0.42;;;;;;;;;;1860153;77;26789;-32
2021/12/11 12:01:10;;;;;;;0.60;0.60;;;;;;;;;;1861079;76;26871;-33
2021/12/11 12:03:38;;;;;;;0.60;0.60;;;;;;;;;;1860236;77;26318;-31
2021/12/11 12:06:10;;;;;;;0.57;0.57;;;;;;;;;;1864692;76;26246;-31
2021/12/11 12:08:37;;;;;;;1.02;0.62;;;;;;;;;;1864589;77;26291;-30
2021/12/11 12:11:06;;;;;;;0.53;0.53;;;;;;;;;;1863598;77;26299;-32
2021/12/11 12:13:34;;;;;;;0.50;0.50;;;;;;;;;;1863206;76;26303;-31
2021/12/11 12:16:06;;;;;;;1.00;0.68;;;;;;;;;;1865912;76;26297;-32
2021/12/11 12:18:34;;;;;;;0.50;0.50;;;;;;;;;;1862833;76;26286;-31
2021/12/11 12:21:03;;;;;;;0.50;0.40;;;;;;;;;;1863496;76;26304;-32
2021/12/11 12:23:32;;;;;;;0.50;0.50;;;;;;;;;;1863196;76;26327;-30
2021/12/11 12:26:01;;;;;;;0.70;0.70;;;;;;;;;;1852044;75;26253;-30
2021/12/11 12:28:32;;;;;;;1.17;0.65;;;;;;;;;;1849370;76;26807;-30
2021/12/11 12:31:03;;;;;;;0.50;0.50;;;;;;;;;;1838784;77;26283;-32
2021/12/11 12:33:31;;;;;;;0.53;0.53;;;;;;;;;;1853632;77;26346;-32
2021/12/11 12:35:59;;;;;;;1.00;0.57;;;;;;;;;;1837886;76;26216;-36
2021/12/11 12:38:28;;;;;;;0.30;0.30;;;;;;;;;;1838972;76;26283;-36
2021/12/11 12:41:08;;;;;;;0.60;0.60;;;;;;;;;;1837657;77;26262;-31
2021/12/11 12:46:19;;;;;;;0.50;0.50;;;;;;;;;;1859432;76;26411;-35
2021/12/11 12:48:47;;;;;;;0.40;0.40;;;;;;;;;;1839984;76;26340;-34
2021/12/11 12:51:15;;;;;;;0.60;0.60;;;;;;;;;;1862655;76;26729;-31
2021/12/11 12:53:44;;;;;;;1.10;0.50;;;;;;;;;;1857770;77;26246;-30
2021/12/11 12:56:26;;;;;;;0.50;0.50;;;;;;;;;;1860135;76;26280;-37
2021/12/11 12:58:57;;;;;;;0.50;0.50;;;;;;;;;;1856635;76;26777;-32
2021/12/11 13:01:26;;;;;;;1.05;0.42;;;;;;;;;;1861431;77;26710;-31
2021/12/11 13:03:54;;;;;;;0.30;0.30;;;;;;;;;;1862059;77;26761;-32
2021/12/11 13:06:23;;;;;;;0.72;0.55;;;;;;;;;;1861919;77;26785;-33
2021/12/11 13:08:52;;;;;;;0.50;0.50;;;;;;;;;;1862695;77;26702;-32
2021/12/11 13:11:21;;;;;;;0.55;0.55;;;;;;;;;;1858800;77;26327;-31
2021/12/11 13:13:50;;;;;;;0.60;0.60;;;;;;;;;;1855364;76;26342;-33
2021/12/11 13:16:22;;;;;;;0.42;0.42;;;;;;;;;;1851465;77;26757;-32
2021/12/11 13:18:50;;;;;;;0.40;0.40;;;;;;;;;;1843956;77;26710;-30
2021/12/11 13:21:25;;;;;;;0.30;0.30;;;;;;;;;;1856634;76;26351;-35
2021/12/11 13:23:55;;;;;;;0.57;0.57;;;;;;;;;;1856060;76;26260;-31
2021/12/11 13:26:23;;;;;;;1.55;0.42;;;;;;;;;;1862690;76;26441;-32
2021/12/11 13:28:54;;;;;;;1.75;0.57;;;;;;;;;;1862564;77;26250;-31
2021/12/11 13:31:35;;;;;;;0.40;0.40;;;;;;;;;;1856882;75;26290;-34
2021/12/11 13:34:03;;;;;;;0.90;0.60;;;;;;;;;;1852244;77;27395;-33
2021/12/11 13:36:31;;;;;;;0.50;0.50;;;;;;;;;;1858109;76;26912;-31
2021/12/11 13:38:59;;;;;;;0.42;0.42;;;;;;;;;;1857055;77;26195;-33
2021/12/11 13:41:32;;;;;;;0.50;0.50;;;;;;;;;;1860747;76;26375;-36
2021/12/11 13:43:59;;;;;;;0.82;0.57;;;;;;;;;;1889294;75;26281;-32
2021/12/11 13:46:27;;;;;;;0.60;0.60;;;;;;;;;;1892449;75;26740;-32
2021/12/11 13:48:54;;;;;;;0.40;0.40;;;;;;;;;;1891611;75;26390;-36
2021/12/11 13:51:23;;;;;;;2.00;0.40;;;;;;;;;;1894325;75;26326;-33
2021/12/11 13:53:51;;;;;;;0.82;0.42;;;;;;;;;;1886394;75;26241;-31
2021/12/11 13:56:20;;;;;;;0.47;0.47;;;;;;;;;;1890161;75;26265;-34
2021/12/11 13:58:47;;;;;;;0.40;0.40;;;;;;;;;;1892432;75;26335;-37
2021/12/11 14:01:16;;;;;;;1.30;0.50;;;;;;;;;;1892309;75;26296;-33
2021/12/11 14:03:44;;;;;;;0.30;0.30;;;;;;;;;;1892667;75;26354;-31
2021/12/11 14:06:13;;;;;;;1.35;0.40;;;;;;;;;;1891865;75;26255;-32
2021/12/11 14:08:41;;;;;;;0.45;0.45;;;;;;;;;;1890646;75;26757;-31
2021/12/11 14:11:10;;;;;;;0.40;0.40;;;;;;;;;;1892350;74;26335;-31
2021/12/11 14:13:38;;;;;;;0.62;0.40;;;;;;;;;;1889914;75;26248;-32
2021/12/11 14:16:06;;;;;;;2.08;0.50;;;;;;;;;;1882989;74;26393;-36
2021/12/11 14:18:34;;;;;;;0.40;0.40;;;;;;;;;;1879140;75;26265;-37
2021/12/11 14:21:03;;;;;;;0.50;0.50;;;;;;;;;;1891974;75;26339;-35
2021/12/11 14:23:34;;;;;;;0.95;0.50;;;;;;;;;;1891061;75;26346;-33
2021/12/11 14:26:03;;;;;;;0.40;0.40;;;;;;;;;;1883379;75;26397;-33
2021/12/11 14:28:30;;;;;;;0.40;0.33;;;;;;;;;;1879754;75;26346;-32
2021/12/11 14:30:59;;;;;;;0.50;0.40;;;;;;;;;;1887360;75;26826;-32
2021/12/11 14:33:27;;;;;;;0.47;0.47;;;;;;;;;;1885379;75;26296;-36
2021/12/11 14:35:54;;;;;;;0.60;0.60;;;;;;;;;;1876589;75;26261;-33
2021/12/11 14:38:22;;;;;;;0.45;0.45;;;;;;;;;;1878459;75;26195;-32
2021/12/11 14:40:51;;;;;;;0.42;0.42;;;;;;;;;;1875717;75;26258;-36
2021/12/11 14:43:20;;;;;;;0.57;0.57;;;;;;;;;;1890962;75;27411;-37
2021/12/11 14:45:49;;;;;;;0.53;0.35;;;;;;;;;;1880646;75;26625;-34
2021/12/11 14:48:16;;;;;;;0.68;0.68;;;;;;;;;;1876343;75;26272;-33
2021/12/11 14:50:48;;;;;;;0.40;0.40;;;;;;;;;;1877534;75;26225;-31
2021/12/11 14:53:19;;;;;;;0.57;0.57;;;;;;;;;;1871183;75;26257;-31
2021/12/11 14:55:48;;;;;;;0.60;0.60;;;;;;;;;;1868691;75;26347;-32
2021/12/11 14:58:15;;;;;;;0.62;0.62;;;;;;;;;;1867152;75;26690;-35
2021/12/11 15:00:44;;;;;;;2.98;0.40;;;;;;;;;;1886822;75;26281;-32
2021/12/11 15:03:12;;;;;;;0.60;0.60;;;;;;;;;;1887350;75;26268;-37
2021/12/11 15:05:41;;;;;;;0.53;0.53;;;;;;;;;;1882744;75;26299;-36
2021/12/11 15:08:10;;;;;;;0.60;0.60;;;;;;;;;;1865333;75;26250;-31
2021/12/11 15:10:38;;;;;;;0.50;0.50;;;;;;;;;;1884387;75;26261;-34